Time;durP1;ratioP1;P1;durP2;ratioP2;P2;SDS_P1;SDS_P2;PMS_P1;PMS_P2;Temp;Humidity;BMP_temperature;BMP_pressure;BME280_temperature;BME280_humidity;BME280_pressure;Samples;Min_cycle;Max_cycle;Signal;HPM_P1;HPM_P2
2023/04/16 00:01:38;;;;;;;122.53;55.85;;;8.20;99.90;;;;;;5035089;28;20037;-75
2023/04/16 00:04:04;;;;;;;133.95;57.38;;;8.20;99.90;;;;;;4952063;28;20407;-75
2023/04/16 00:06:30;;;;;;;118.07;56.28;;;8.30;99.90;;;;;;4953863;29;20044;-75
2023/04/16 00:08:56;;;;;;;135.43;57.00;;;8.20;99.90;;;;;;5012655;28;20075;-75
2023/04/16 00:11:22;;;;;;;134.93;57.85;;;8.30;99.90;;;;;;5018304;28;20440;-75
2023/04/16 00:13:47;;;;;;;138.90;57.55;;;8.20;99.90;;;;;;5016988;28;20041;-75
2023/04/16 00:16:13;;;;;;;129.95;56.40;;;8.20;99.90;;;;;;4992253;28;20044;-75
2023/04/16 00:18:39;;;;;;;148.55;59.67;;;8.20;99.90;;;;;;4961661;28;20098;-75
2023/04/16 00:21:05;;;;;;;142.00;59.42;;;8.20;99.90;;;;;;4950521;28;20054;-75
2023/04/16 00:23:31;;;;;;;159.32;60.65;;;8.10;99.90;;;;;;4939381;29;20043;-75
2023/04/16 00:25:58;;;;;;;144.48;59.92;;;8.30;99.90;;;;;;4933292;28;20508;-75
2023/04/16 00:28:24;;;;;;;152.82;59.40;;;8.20;99.90;;;;;;4923683;28;20039;-75
2023/04/16 00:30:50;;;;;;;154.68;61.00;;;8.20;99.90;;;;;;4958983;23;20043;-75
2023/04/16 00:33:16;;;;;;;165.93;63.88;;;8.20;99.90;;;;;;4951803;29;20043;-75
2023/04/16 00:35:45;;;;;;;134.32;60.17;;;8.20;99.90;;;;;;4930118;28;20483;-75
2023/04/16 00:38:11;;;;;;;139.10;60.28;;;8.20;99.90;;;;;;4952375;28;20408;-75
2023/04/16 00:40:36;;;;;;;142.38;61.22;;;8.20;99.90;;;;;;5001710;28;20038;-75
2023/04/16 00:43:02;;;;;;;145.80;61.85;;;8.20;99.90;;;;;;5054506;28;20041;-75
2023/04/16 00:45:28;;;;;;;152.48;63.08;;;8.20;99.90;;;;;;4951410;28;20612;-75
2023/04/16 00:47:54;;;;;;;141.00;58.97;;;8.30;99.90;;;;;;4941613;28;20030;-75
2023/04/16 00:50:20;;;;;;;166.40;64.22;;;8.20;99.90;;;;;;4955319;28;20088;-75
2023/04/16 00:52:47;;;;;;;161.65;63.60;;;8.20;99.90;;;;;;4996142;28;20042;-75
2023/04/16 00:55:14;;;;;;;172.32;63.80;;;8.20;99.90;;;;;;4998834;28;20046;-75
2023/04/16 00:57:39;;;;;;;166.57;65.55;;;8.20;99.90;;;;;;4983957;28;20088;-75
2023/04/16 01:00:06;;;;;;;168.20;67.68;;;8.20;99.90;;;;;;4946117;28;20035;-75
2023/04/16 01:02:33;;;;;;;158.77;63.28;;;8.20;99.90;;;;;;4957060;28;20479;-75
2023/04/16 01:05:00;;;;;;;157.63;63.40;;;8.20;99.90;;;;;;4942688;28;20517;-75
2023/04/16 01:07:25;;;;;;;146.88;62.75;;;8.20;99.90;;;;;;4937614;28;20498;-75
2023/04/16 01:09:51;;;;;;;158.20;66.32;;;8.20;99.90;;;;;;4969822;28;20145;-75
2023/04/16 01:12:16;;;;;;;149.98;64.25;;;8.20;99.90;;;;;;4944494;28;20403;-75
2023/04/16 01:14:42;;;;;;;181.35;67.82;;;8.20;99.90;;;;;;5031989;28;20105;-75
2023/04/16 01:17:07;;;;;;;163.68;64.65;;;8.20;99.90;;;;;;4950828;28;20627;-75
2023/04/16 01:19:37;;;;;;;159.15;64.78;;;8.20;99.90;;;;;;4943659;28;20035;-75
2023/04/16 01:22:03;;;;;;;146.07;62.58;;;8.20;99.90;;;;;;4942030;28;20046;-75
2023/04/16 01:24:29;;;;;;;156.77;65.97;;;8.30;99.90;;;;;;4980165;28;20062;-75
2023/04/16 01:26:57;;;;;;;159.55;64.00;;;8.20;99.90;;;;;;4989442;28;20421;-75
2023/04/16 01:29:23;;;;;;;165.15;65.85;;;8.20;99.90;;;;;;4985201;28;20559;-75
2023/04/16 01:31:49;;;;;;;163.02;66.00;;;8.30;99.90;;;;;;4960144;28;20031;-74
2023/04/16 01:34:14;;;;;;;151.45;65.32;;;8.30;99.90;;;;;;4973002;28;21027;-75
2023/04/16 01:36:40;;;;;;;159.48;65.93;;;8.30;99.90;;;;;;4964455;28;20570;-75
2023/04/16 01:39:05;;;;;;;147.07;65.20;;;8.20;99.90;;;;;;4950245;28;20495;-75
2023/04/16 01:41:31;;;;;;;164.05;66.72;;;8.30;99.90;;;;;;4950789;28;20078;-75
2023/04/16 01:43:56;;;;;;;158.52;65.93;;;8.30;99.90;;;;;;5053714;28;20043;-75
2023/04/16 01:46:27;;;;;;;158.15;65.40;;;8.30;99.90;;;;;;4968446;28;20035;-75
2023/04/16 01:48:53;;;;;;;136.55;62.85;;;8.30;99.90;;;;;;4963243;28;20047;-75
2023/04/16 01:51:19;;;;;;;153.13;66.07;;;8.30;99.90;;;;;;4950433;28;20409;-75
2023/04/16 01:53:45;;;;;;;158.07;68.75;;;8.30;99.90;;;;;;4968799;28;20494;-75
2023/04/16 01:56:11;;;;;;;156.75;67.10;;;8.20;99.90;;;;;;4948078;28;20043;-75
2023/04/16 01:58:36;;;;;;;153.55;66.80;;;8.20;99.90;;;;;;4989991;28;20490;-75
2023/04/16 02:01:04;;;;;;;136.88;65.18;;;8.20;99.90;;;;;;4966994;28;20043;-75
2023/04/16 02:03:30;;;;;;;138.27;64.78;;;8.20;99.90;;;;;;5047989;28;20047;-75
2023/04/16 02:05:56;;;;;;;142.60;65.22;;;8.20;99.90;;;;;;4967737;28;20057;-75
2023/04/16 02:08:22;;;;;;;132.05;62.53;;;8.20;99.90;;;;;;4952620;28;20035;-75
2023/04/16 02:10:49;;;;;;;119.63;60.13;;;8.30;99.90;;;;;;4956686;28;20092;-75
2023/04/16 02:13:15;;;;;;;127.47;61.10;;;8.20;99.90;;;;;;4964878;28;20398;-75
2023/04/16 02:15:48;;;;;;;124.93;61.92;;;8.30;99.90;;;;;;4964286;28;20082;-75
2023/04/16 02:18:14;;;;;;;125.50;61.55;;;8.30;99.90;;;;;;4949934;28;20522;-75
2023/04/16 02:20:46;;;;;;;115.35;59.85;;;8.30;99.90;;;;;;4989145;28;20038;-75
2023/04/16 02:23:13;;;;;;;123.80;61.20;;;8.30;99.90;;;;;;4963435;28;20066;-75
2023/04/16 02:25:46;;;;;;;111.53;58.00;;;8.30;99.90;;;;;;5018239;28;20043;-74
2023/04/16 02:28:16;;;;;;;115.32;63.08;;;8.30;99.90;;;;;;4991354;28;20031;-75
2023/04/16 02:30:41;;;;;;;113.40;60.90;;;8.30;99.90;;;;;;4975838;28;20029;-75
2023/04/16 02:33:09;;;;;;;111.65;60.83;;;8.30;99.90;;;;;;4977745;28;20038;-75
2023/04/16 02:35:35;;;;;;;110.68;59.85;;;8.30;99.90;;;;;;4992199;28;20084;-75
2023/04/16 02:38:02;;;;;;;109.80;60.60;;;8.30;99.90;;;;;;4952341;28;20108;-75
2023/04/16 02:40:28;;;;;;;113.95;61.60;;;8.30;99.90;;;;;;4991666;28;20077;-75
2023/04/16 02:42:54;;;;;;;116.47;61.53;;;8.30;99.90;;;;;;4993426;28;20031;-75
2023/04/16 02:45:20;;;;;;;107.57;60.03;;;8.30;99.90;;;;;;4952303;28;20043;-75
2023/04/16 02:47:47;;;;;;;111.78;61.95;;;8.30;99.90;;;;;;4956061;28;20078;-75
2023/04/16 02:50:13;;;;;;;105.00;58.75;;;8.30;99.90;;;;;;5036130;28;20039;-75
2023/04/16 02:52:38;;;;;;;99.78;58.15;;;8.20;99.90;;;;;;4994602;28;20043;-75
2023/04/16 02:55:05;;;;;;;109.22;60.83;;;8.30;99.90;;;;;;4953045;28;20062;-75
2023/04/16 02:57:31;;;;;;;107.97;60.75;;;8.20;99.90;;;;;;4965613;28;20064;-75
2023/04/16 02:59:56;;;;;;;110.45;59.90;;;8.20;99.90;;;;;;4949477;28;20501;-75
2023/04/16 03:02:22;;;;;;;103.60;59.45;;;8.20;99.90;;;;;;4938810;28;20434;-75
2023/04/16 03:04:47;;;;;;;96.70;57.88;;;8.20;99.90;;;;;;4967995;28;20498;-75
2023/04/16 03:07:13;;;;;;;99.70;58.47;;;8.30;99.90;;;;;;4968514;28;20049;-75
2023/04/16 03:09:39;;;;;;;97.60;57.28;;;8.20;99.90;;;;;;4967752;28;20170;-75
2023/04/16 03:12:05;;;;;;;95.22;57.63;;;8.20;99.90;;;;;;4956405;28;20183;-75
2023/04/16 03:14:30;;;;;;;98.22;60.08;;;8.20;99.90;;;;;;5018891;28;20503;-75
2023/04/16 03:16:57;;;;;;;96.25;60.10;;;8.20;99.90;;;;;;5052484;28;20039;-75
2023/04/16 03:19:23;;;;;;;101.45;58.85;;;8.20;99.90;;;;;;4968188;28;20556;-75
2023/04/16 03:21:48;;;;;;;96.38;57.00;;;8.10;99.90;;;;;;4958936;28;20139;-75
2023/04/16 03:24:14;;;;;;;101.70;59.78;;;8.20;99.90;;;;;;4949131;28;20514;-75
2023/04/16 03:26:39;;;;;;;100.93;59.40;;;8.20;99.90;;;;;;5073587;28;20040;-75
2023/04/16 03:29:05;;;;;;;104.28;60.80;;;8.20;99.90;;;;;;5073451;28;20414;-75
2023/04/16 03:31:31;;;;;;;118.97;63.83;;;8.10;99.90;;;;;;5036009;28;20039;-75
2023/04/16 03:33:56;;;;;;;107.90;60.25;;;8.20;99.90;;;;;;5056219;28;20030;-75
2023/04/16 03:36:22;;;;;;;124.30;62.00;;;8.10;99.90;;;;;;4937509;29;20043;-75
2023/04/16 03:38:48;;;;;;;125.75;63.13;;;8.20;99.90;;;;;;4953080;28;20047;-75
2023/04/16 03:41:14;;;;;;;117.00;60.95;;;8.10;99.90;;;;;;4971707;28;20039;-75
2023/04/16 03:43:39;;;;;;;107.68;62.00;;;8.20;99.90;;;;;;5002962;28;20503;-75
2023/04/16 03:46:05;;;;;;;108.25;61.90;;;8.10;99.90;;;;;;5004285;28;20032;-75
2023/04/16 03:48:30;;;;;;;111.25;63.08;;;8.10;99.90;;;;;;4963347;28;20441;-75
2023/04/16 03:50:56;;;;;;;106.63;61.42;;;8.10;99.90;;;;;;4948755;28;20070;-75
2023/04/16 03:53:21;;;;;;;109.70;62.58;;;8.10;99.90;;;;;;5011034;28;20040;-75
2023/04/16 03:55:51;;;;;;;103.38;59.40;;;8.10;99.90;;;;;;4964868;28;20088;-75
2023/04/16 03:58:17;;;;;;;103.22;61.03;;;8.10;99.90;;;;;;4979814;28;20368;-75
2023/04/16 04:00:42;;;;;;;93.53;59.75;;;8.10;99.90;;;;;;4990488;28;20057;-75
2023/04/16 04:03:09;;;;;;;82.13;58.40;;;8.10;99.90;;;;;;4985207;28;20043;-75
2023/04/16 04:05:41;;;;;;;83.43;57.55;;;8.10;99.90;;;;;;5053582;28;20486;-75
2023/04/16 04:08:07;;;;;;;84.30;57.22;;;8.10;99.90;;;;;;4962874;28;20043;-75
2023/04/16 04:10:34;;;;;;;88.20;58.92;;;8.10;99.90;;;;;;4958043;28;20047;-75
2023/04/16 04:13:01;;;;;;;88.82;59.13;;;8.10;99.90;;;;;;4965417;28;20039;-75
2023/04/16 04:15:27;;;;;;;97.03;59.78;;;8.00;99.90;;;;;;5014628;28;20051;-75
2023/04/16 04:17:52;;;;;;;108.90;61.85;;;8.10;99.90;;;;;;5036196;28;20041;-75
2023/04/16 04:20:19;;;;;;;109.45;62.45;;;8.00;99.90;;;;;;5052856;28;20039;-75
2023/04/16 04:22:45;;;;;;;104.60;63.92;;;8.10;99.90;;;;;;4985774;28;20039;-75
2023/04/16 04:25:10;;;;;;;108.38;62.40;;;8.10;99.90;;;;;;4962261;28;20458;-75
2023/04/16 04:27:36;;;;;;;109.63;63.28;;;8.10;99.90;;;;;;4951534;29;20035;-75
2023/04/16 04:30:03;;;;;;;105.10;63.05;;;8.10;99.90;;;;;;4960412;28;20043;-75
2023/04/16 04:32:30;;;;;;;101.82;63.00;;;8.10;99.90;;;;;;4985381;28;20084;-75
2023/04/16 04:34:55;;;;;;;105.70;64.43;;;8.10;99.90;;;;;;5014066;28;20036;-75
2023/04/16 04:37:21;;;;;;;111.25;66.07;;;8.10;99.90;;;;;;4997710;28;20035;-75
2023/04/16 04:39:46;;;;;;;101.43;61.63;;;8.20;99.90;;;;;;4966426;28;20034;-75
2023/04/16 04:42:12;;;;;;;97.72;60.65;;;8.10;99.90;;;;;;4965435;28;20505;-75
2023/04/16 04:44:37;;;;;;;105.90;64.65;;;8.10;99.90;;;;;;5022062;28;20032;-75
2023/04/16 04:47:03;;;;;;;108.93;63.80;;;8.10;99.90;;;;;;5011093;28;20031;-75
2023/04/16 04:49:29;;;;;;;113.05;67.30;;;8.10;99.90;;;;;;4943294;29;20040;-75
2023/04/16 04:51:55;;;;;;;121.80;67.28;;;8.10;99.90;;;;;;4952078;28;20063;-75
2023/04/16 04:54:20;;;;;;;115.65;67.43;;;8.10;99.90;;;;;;4971751;28;20115;-75
2023/04/16 04:56:46;;;;;;;116.40;65.57;;;8.10;99.90;;;;;;5071924;28;20041;-75
2023/04/16 04:59:12;;;;;;;112.35;66.80;;;8.10;99.90;;;;;;5019551;28;20453;-75
2023/04/16 05:01:37;;;;;;;101.53;63.92;;;8.20;99.90;;;;;;4965435;28;20039;-75
2023/04/16 05:04:03;;;;;;;96.22;60.78;;;8.20;99.90;;;;;;5009133;28;20551;-75
2023/04/16 05:06:29;;;;;;;90.80;61.08;;;8.20;99.90;;;;;;4969528;28;20040;-75
2023/04/16 05:08:54;;;;;;;95.15;60.25;;;8.20;99.90;;;;;;5019505;28;20506;-75
2023/04/16 05:11:20;;;;;;;97.00;64.28;;;8.10;99.90;;;;;;4960334;28;20093;-75
2023/04/16 05:13:46;;;;;;;103.22;64.35;;;8.20;99.90;;;;;;4956178;28;20049;-75
2023/04/16 05:16:11;;;;;;;102.20;63.53;;;8.10;99.90;;;;;;5006271;28;20144;-75
2023/04/16 05:18:37;;;;;;;107.22;66.57;;;8.10;99.90;;;;;;5071530;28;20480;-76
2023/04/16 05:21:02;;;;;;;99.75;65.10;;;8.10;99.90;;;;;;5071667;28;20431;-75
2023/04/16 05:23:28;;;;;;;103.20;64.70;;;8.10;99.90;;;;;;5013691;28;20037;-75
2023/04/16 05:25:53;;;;;;;100.38;64.00;;;8.20;99.90;;;;;;4979673;28;20039;-75
2023/04/16 05:28:19;;;;;;;107.68;64.55;;;8.10;99.90;;;;;;4957054;28;20133;-75
2023/04/16 05:30:45;;;;;;;97.05;63.78;;;8.10;99.90;;;;;;4972922;28;20043;-75
2023/04/16 05:33:10;;;;;;;99.70;62.17;;;8.10;99.90;;;;;;4982232;28;20513;-75
2023/04/16 05:35:36;;;;;;;89.82;60.53;;;8.10;99.90;;;;;;4993430;28;20031;-75
2023/04/16 05:38:03;;;;;;;93.38;60.28;;;8.10;99.90;;;;;;5033613;28;20036;-75
2023/04/16 05:40:28;;;;;;;103.00;64.15;;;8.20;99.90;;;;;;5071289;28;20040;-75
2023/04/16 05:42:54;;;;;;;109.03;65.45;;;8.20;99.90;;;;;;5035724;28;20038;-75
2023/04/16 05:45:19;;;;;;;111.57;67.32;;;8.10;99.90;;;;;;4975044;28;20078;-76
2023/04/16 05:47:45;;;;;;;116.90;66.00;;;8.10;99.90;;;;;;4956355;28;20503;-75
2023/04/16 05:50:10;;;;;;;98.75;61.58;;;8.10;99.90;;;;;;4950235;28;20514;-75
2023/04/16 05:52:36;;;;;;;93.80;61.72;;;8.10;99.90;;;;;;4952678;28;20065;-75
2023/04/16 05:55:02;;;;;;;81.93;56.08;;;8.10;99.90;;;;;;4967875;28;20031;-75
2023/04/16 05:57:28;;;;;;;75.43;54.97;;;8.10;99.90;;;;;;4997658;28;20066;-75
2023/04/16 05:59:54;;;;;;;75.32;55.25;;;8.20;99.90;;;;;;4987174;28;20482;-76
2023/04/16 06:02:20;;;;;;;73.78;54.33;;;8.20;99.90;;;;;;5060706;28;20069;-75
2023/04/16 06:04:45;;;;;;;71.20;53.70;;;8.20;99.90;;;;;;4988464;28;20126;-75
2023/04/16 06:07:11;;;;;;;77.43;55.63;;;8.30;99.90;;;;;;5051006;28;20119;-75
2023/04/16 06:09:36;;;;;;;85.88;57.50;;;8.30;99.90;;;;;;4970539;28;20061;-75
2023/04/16 06:12:02;;;;;;;96.93;60.08;;;8.30;99.90;;;;;;4973871;28;20038;-75
2023/04/16 06:14:27;;;;;;;85.97;59.33;;;8.40;99.90;;;;;;5005558;28;20500;-75
2023/04/16 06:16:53;;;;;;;90.10;60.78;;;8.40;99.90;;;;;;4988548;28;20050;-75
2023/04/16 06:19:18;;;;;;;95.38;59.75;;;8.50;99.90;;;;;;4984141;28;20046;-75
2023/04/16 06:21:44;;;;;;;94.47;61.03;;;8.50;99.90;;;;;;4966839;28;20060;-75
2023/04/16 06:24:10;;;;;;;94.00;60.55;;;8.60;99.90;;;;;;4985560;28;20039;-75
2023/04/16 06:26:36;;;;;;;88.20;59.60;;;8.70;99.90;;;;;;4964894;28;20043;-75
2023/04/16 06:29:02;;;;;;;82.82;57.15;;;8.70;99.90;;;;;;4950097;29;20047;-75
2023/04/16 06:31:28;;;;;;;76.78;57.00;;;8.80;99.90;;;;;;4980130;22;20142;-75
2023/04/16 06:33:54;;;;;;;79.65;55.40;;;8.80;99.90;;;;;;4934559;28;20040;-76
2023/04/16 06:36:20;;;;;;;76.13;56.47;;;8.90;99.90;;;;;;4996585;28;20043;-76
2023/04/16 06:38:46;;;;;;;71.70;53.90;;;9.00;99.90;;;;;;4930623;29;20035;-76
2023/04/16 06:41:13;;;;;;;66.88;52.33;;;9.10;99.90;;;;;;4944691;28;20043;-76
2023/04/16 06:43:39;;;;;;;70.38;53.03;;;9.30;99.90;;;;;;4935543;28;20043;-75
2023/04/16 06:46:04;;;;;;;68.68;53.55;;;9.50;99.90;;;;;;4951160;28;20502;-74
2023/04/16 06:48:30;;;;;;;69.93;52.88;;;9.50;99.90;;;;;;4939545;28;20036;-74
2023/04/16 06:50:56;;;;;;;61.63;48.22;;;9.70;99.90;;;;;;4938654;28;20100;-75
2023/04/16 06:53:22;;;;;;;58.33;46.47;;;9.70;99.90;;;;;;4957515;28;20376;-75
2023/04/16 06:55:48;;;;;;;60.50;46.88;;;9.70;99.90;;;;;;4957399;28;20073;-75
2023/04/16 06:58:13;;;;;;;64.47;48.50;;;9.70;99.90;;;;;;4961253;28;20082;-75
2023/04/16 07:00:39;;;;;;;58.55;47.50;;;9.60;99.90;;;;;;4928743;29;20564;-75
2023/04/16 07:03:04;;;;;;;63.75;47.42;;;9.70;99.90;;;;;;4930676;29;20577;-75
2023/04/16 07:05:30;;;;;;;59.78;47.08;;;9.70;99.90;;;;;;4953368;29;20546;-75
2023/04/16 07:07:56;;;;;;;64.53;52.97;;;9.70;99.90;;;;;;4965993;28;20058;-75
2023/04/16 07:10:22;;;;;;;52.22;46.03;;;9.80;99.90;;;;;;4952252;29;20071;-75
2023/04/16 07:12:48;;;;;;;49.03;39.90;;;9.90;99.90;;;;;;4953216;28;20310;-75
2023/04/16 07:15:13;;;;;;;48.67;40.45;;;9.90;99.90;;;;;;4927864;28;20487;-75
2023/04/16 07:17:39;;;;;;;53.55;41.75;;;9.90;99.90;;;;;;4970300;28;20495;-75
2023/04/16 07:20:06;;;;;;;49.15;40.42;;;9.80;99.90;;;;;;4945571;28;20046;-74
2023/04/16 07:22:31;;;;;;;54.65;42.00;;;9.80;99.90;;;;;;4966931;28;20035;-74
2023/04/16 07:24:57;;;;;;;48.60;39.30;;;9.80;99.90;;;;;;4943773;28;20457;-74
2023/04/16 07:27:22;;;;;;;47.05;38.88;;;9.90;99.90;;;;;;4950106;28;20073;-75
2023/04/16 07:29:49;;;;;;;50.55;39.92;;;10.00;99.90;;;;;;4942264;29;20104;-76
2023/04/16 07:32:14;;;;;;;49.63;39.10;;;10.10;99.90;;;;;;4964609;28;20043;-75
2023/04/16 07:34:40;;;;;;;48.47;39.38;;;10.10;99.90;;;;;;4945165;29;20041;-75
2023/04/16 07:37:06;;;;;;;46.45;38.13;;;10.20;99.90;;;;;;4936544;29;20039;-75
2023/04/16 07:39:31;;;;;;;46.95;38.53;;;10.10;99.90;;;;;;4934103;29;20202;-75
2023/04/16 07:41:57;;;;;;;47.10;38.22;;;10.10;99.90;;;;;;4917725;29;20176;-75
2023/04/16 07:44:22;;;;;;;46.30;36.85;;;10.00;99.90;;;;;;4948976;28;20032;-75
2023/04/16 07:46:48;;;;;;;48.13;37.05;;;10.00;99.90;;;;;;4933150;28;20105;-75
2023/04/16 07:49:14;;;;;;;45.42;39.15;;;10.10;99.90;;;;;;4951345;28;20501;-75
2023/04/16 07:51:39;;;;;;;46.15;37.63;;;10.20;99.90;;;;;;4953216;28;20050;-75
2023/04/16 07:54:05;;;;;;;40.95;35.33;;;10.30;99.90;;;;;;4935863;28;20492;-75
2023/04/16 07:56:31;;;;;;;39.80;33.45;;;10.50;99.90;;;;;;4936065;29;20511;-75
2023/04/16 07:58:56;;;;;;;36.88;32.88;;;10.70;99.90;;;;;;4946089;28;20051;-75
2023/04/16 08:01:22;;;;;;;37.15;32.55;;;10.80;99.90;;;;;;4950730;29;20043;-76
2023/04/16 08:03:47;;;;;;;36.50;32.53;;;10.90;99.90;;;;;;4952911;29;20042;-76
2023/04/16 08:06:13;;;;;;;38.10;32.67;;;11.00;99.90;;;;;;4951928;28;20473;-76
2023/04/16 08:08:39;;;;;;;37.88;33.15;;;11.20;99.90;;;;;;4951957;28;20124;-76
2023/04/16 08:11:04;;;;;;;36.00;31.63;;;11.20;99.90;;;;;;4952012;28;20040;-76
2023/04/16 08:13:30;;;;;;;37.50;32.70;;;11.20;99.90;;;;;;4952794;28;20074;-76
2023/04/16 08:15:56;;;;;;;36.40;32.25;;;11.20;99.90;;;;;;4956041;28;20395;-75
2023/04/16 08:18:21;;;;;;;38.05;32.88;;;11.20;99.90;;;;;;4952138;28;20123;-75
2023/04/16 08:20:47;;;;;;;40.95;31.83;;;11.30;99.90;;;;;;4956888;28;20355;-75
2023/04/16 08:23:12;;;;;;;37.80;31.38;;;11.60;99.90;;;;;;4993238;28;20041;-75
2023/04/16 08:25:38;;;;;;;34.80;29.60;;;11.90;99.90;;;;;;4955421;28;20043;-75
2023/04/16 08:28:04;;;;;;;37.67;29.02;;;12.00;99.90;;;;;;4957065;28;20043;-76
2023/04/16 08:30:30;;;;;;;33.80;29.00;;;12.10;99.90;;;;;;4952715;28;20043;-75
2023/04/16 08:32:55;;;;;;;34.15;28.73;;;12.30;99.90;;;;;;5006854;28;20048;-75
2023/04/16 08:35:21;;;;;;;30.80;25.23;;;12.50;99.90;;;;;;4967081;28;20043;-74
2023/04/16 08:37:47;;;;;;;35.13;27.73;;;12.60;99.90;;;;;;4945645;28;20039;-75
2023/04/16 08:40:16;;;;;;;33.85;28.42;;;12.70;99.90;;;;;;4935844;23;20036;-75
2023/04/16 08:42:51;;;;;;;30.67;26.73;;;13.00;99.90;;;;;;4928472;28;20475;-75
2023/04/16 08:45:17;;;;;;;31.48;25.10;;;13.80;99.90;;;;;;4916236;29;20043;-76
2023/04/16 08:47:47;;;;;;;32.05;25.90;;;14.70;99.90;;;;;;4932740;28;22029;-76
2023/04/16 08:50:15;;;;;;;31.98;25.35;;;15.20;99.90;;;;;;4929952;29;20153;-75
2023/04/16 08:53:05;;;;;;;29.20;25.30;;;15.00;99.90;;;;;;4926840;29;20043;-78
2023/04/16 08:55:49;;;;;;;29.65;25.45;;;14.50;99.90;;;;;;4969695;23;20058;-73
2023/04/16 08:58:17;;;;;;;;;;;14.30;99.90;;;;;;4983848;28;20093;-73
2023/04/16 09:00:44;;;;;;;28.30;23.35;;;14.70;99.90;;;;;;4955308;28;20349;-73
2023/04/16 09:03:10;;;;;;;25.40;22.42;;;15.00;99.90;;;;;;4930127;29;20035;-73
2023/04/16 09:05:37;;;;;;;28.83;23.80;;;15.40;99.90;;;;;;4950862;29;20495;-73
2023/04/16 09:08:06;;;;;;;33.17;25.08;;;15.70;99.90;;;;;;4951085;29;20039;-73
2023/04/16 09:10:32;;;;;;;31.30;23.23;;;16.00;99.90;;;;;;4950292;28;20043;-73
2023/04/16 09:12:58;;;;;;;29.60;22.23;;;16.60;99.90;;;;;;4942767;28;20107;-73
2023/04/16 09:15:27;;;;;;;27.80;21.95;;;17.30;99.90;;;;;;5034711;28;20074;-73
2023/04/16 09:17:53;;;;;;;27.40;21.40;;;17.50;99.90;;;;;;4951046;29;20043;-73
2023/04/16 09:20:19;;;;;;;29.55;20.98;;;17.30;99.90;;;;;;4950959;28;20072;-73
2023/04/16 09:22:45;;;;;;;23.13;19.65;;;16.90;99.90;;;;;;4949846;28;20422;-73
2023/04/16 09:25:11;;;;;;;22.23;19.60;;;16.90;99.90;;;;;;4934410;28;20042;-73
2023/04/16 09:27:37;;;;;;;24.40;19.90;;;17.10;99.90;;;;;;4966644;28;20043;-73
2023/04/16 09:30:26;;;;;;;25.40;20.63;;;17.00;99.90;;;;;;4950879;29;20403;-73
2023/04/16 09:33:11;;;;;;;25.27;21.17;;;16.50;99.90;;;;;;4948766;28;20410;-73
2023/04/16 09:35:47;;;;;;;28.02;21.67;;;16.10;99.90;;;;;;4915637;29;20047;-73
2023/04/16 09:38:13;;;;;;;24.75;21.77;;;16.20;99.90;;;;;;4931317;29;20051;-73
2023/04/16 09:40:39;;;;;;;28.15;22.40;;;16.40;99.90;;;;;;4931175;28;20484;-73
2023/04/16 09:43:15;;;;;;;25.85;21.40;;;16.70;99.90;;;;;;4968008;28;20039;-73
2023/04/16 09:45:51;;;;;;;26.75;21.80;;;17.00;99.90;;;;;;4949945;29;20061;-73
2023/04/16 09:48:31;;;;;;;25.70;20.73;;;17.30;99.90;;;;;;4950605;29;20431;-73
2023/04/16 09:50:58;;;;;;;26.73;20.45;;;17.50;99.90;;;;;;4950293;29;20576;-73
2023/04/16 09:53:29;;;;;;;25.30;21.00;;;17.30;99.90;;;;;;4947227;28;20466;-73
2023/04/16 09:55:58;;;;;;;25.23;20.45;;;17.20;99.90;;;;;;4945098;28;20069;-73
2023/04/16 09:58:25;;;;;;;25.02;19.58;;;17.10;99.90;;;;;;4950134;29;20039;-73
2023/04/16 10:01:00;;;;;;;28.23;20.60;;;16.90;99.90;;;;;;4950111;29;20195;-73
2023/04/16 10:03:33;;;;;;;27.02;21.48;;;16.80;99.90;;;;;;4948838;28;20087;-73
2023/04/16 10:06:06;;;;;;;25.02;19.95;;;16.70;99.90;;;;;;5033808;28;20048;-73
2023/04/16 10:08:31;;;;;;;25.73;21.30;;;16.60;99.90;;;;;;4950382;29;20050;-73
2023/04/16 10:10:58;;;;;;;24.95;20.65;;;16.60;99.90;;;;;;4949923;29;20042;-73
2023/04/16 10:13:26;;;;;;;25.50;20.10;;;16.50;99.90;;;;;;4941665;28;20126;-73
2023/04/16 10:15:55;;;;;;;24.67;20.05;;;16.50;99.90;;;;;;4949676;29;20043;-73
2023/04/16 10:18:21;;;;;;;24.13;20.00;;;16.50;99.90;;;;;;4949093;28;20062;-73
2023/04/16 10:20:48;;;;;;;22.15;19.30;;;16.90;99.90;;;;;;4941715;28;20075;-73
2023/04/16 10:23:14;;;;;;;23.25;19.55;;;17.40;99.90;;;;;;4933855;28;20051;-73
2023/04/16 10:25:41;;;;;;;23.58;18.98;;;18.00;99.90;;;;;;4949472;29;20411;-73
2023/04/16 10:28:08;;;;;;;23.90;19.73;;;18.50;99.90;;;;;;4948922;28;20043;-73
2023/04/16 10:30:36;;;;;;;23.90;18.95;;;18.90;99.90;;;;;;4948760;28;20092;-73
2023/04/16 10:33:03;;;;;;;22.42;18.67;;;19.20;99.90;;;;;;4949851;29;20464;-73
2023/04/16 10:35:29;;;;;;;20.95;18.35;;;19.40;99.90;;;;;;4933145;29;20438;-73
2023/04/16 10:37:56;;;;;;;20.98;17.75;;;19.70;99.90;;;;;;4949553;29;20077;-73
2023/04/16 10:40:25;;;;;;;22.98;18.83;;;20.10;99.90;;;;;;5032082;28;20090;-73
2023/04/16 10:42:57;;;;;;;19.20;17.00;;;20.00;99.90;;;;;;4949680;28;20442;-73
2023/04/16 10:45:31;;;;;;;20.23;16.75;;;19.60;82.60;;;;;;5033191;28;20097;-73
2023/04/16 10:47:57;;;;;;;21.58;17.98;;;18.90;88.10;;;;;;5033550;28;20097;-73
2023/04/16 10:50:23;;;;;;;20.70;18.33;;;18.50;99.90;;;;;;4941208;28;20040;-73
2023/04/16 10:53:08;;;;;;;22.58;17.90;;;18.30;99.90;;;;;;4949441;29;20043;-73
2023/04/16 10:55:37;;;;;;;24.40;18.50;;;18.00;99.90;;;;;;4948406;28;20104;-73
2023/04/16 10:58:27;;;;;;;20.95;18.05;;;17.90;99.90;;;;;;4948364;28;20522;-73
2023/04/16 11:00:53;;;;;;;22.33;19.17;;;17.70;99.90;;;;;;4933202;28;20505;-73
2023/04/16 11:03:18;;;;;;;23.65;19.52;;;17.60;99.90;;;;;;5033423;28;20089;-73
2023/04/16 11:05:48;;;;;;;24.25;18.70;;;17.40;99.90;;;;;;4949166;29;20062;-73
2023/04/16 11:08:14;;;;;;;22.60;18.65;;;17.10;99.90;;;;;;4949296;29;20509;-73
2023/04/16 11:10:40;;;;;;;22.55;18.65;;;16.80;99.90;;;;;;4990146;28;20490;-73
2023/04/16 11:13:07;;;;;;;23.40;19.02;;;16.60;99.90;;;;;;4949084;29;20035;-75
2023/04/16 11:15:33;;;;;;;26.63;20.83;;;16.50;99.90;;;;;;4948958;29;20047;-75
2023/04/16 11:17:59;;;;;;;23.42;18.80;;;16.20;99.90;;;;;;4949193;29;20614;-75
2023/04/16 11:20:26;;;;;;;23.85;18.92;;;16.20;99.90;;;;;;4948268;28;20086;-75
2023/04/16 11:22:54;;;;;;;27.27;20.05;;;16.20;99.90;;;;;;4948993;29;20047;-75
2023/04/16 11:25:21;;;;;;;26.88;19.48;;;16.20;99.90;;;;;;4948831;29;20039;-76
2023/04/16 11:27:47;;;;;;;22.77;19.65;;;16.10;99.90;;;;;;4949404;29;20464;-76
2023/04/16 11:30:13;;;;;;;23.70;18.83;;;16.20;99.90;;;;;;4977533;28;20039;-75
2023/04/16 11:32:39;;;;;;;21.58;18.05;;;16.20;99.90;;;;;;4948954;29;20423;-75
2023/04/16 11:35:13;;;;;;;20.13;17.85;;;16.20;99.90;;;;;;4948619;29;20519;-75
2023/04/16 11:37:39;;;;;;;20.33;18.10;;;16.30;99.90;;;;;;4949094;29;20039;-75
2023/04/16 11:40:06;;;;;;;24.13;18.35;;;16.30;99.90;;;;;;4932433;28;20027;-75
2023/04/16 11:42:32;;;;;;;24.63;20.05;;;16.20;99.90;;;;;;4948739;29;20422;-75
2023/04/16 11:45:02;;;;;;;23.35;20.33;;;16.00;99.90;;;;;;4948834;28;20039;-76
2023/04/16 11:47:29;;;;;;;25.50;20.92;;;15.80;99.90;;;;;;4952178;29;20039;-75
2023/04/16 11:49:55;;;;;;;26.00;20.33;;;15.70;99.90;;;;;;4951300;28;20047;-75
2023/04/16 11:52:29;;;;;;;28.27;20.70;;;15.70;99.90;;;;;;4951958;28;20039;-75
2023/04/16 11:54:56;;;;;;;29.05;20.80;;;15.90;99.90;;;;;;4951670;29;20039;-75
2023/04/16 11:57:29;;;;;;;24.88;19.35;;;16.10;99.90;;;;;;4950800;28;20059;-75
2023/04/16 11:59:56;;;;;;;28.92;21.67;;;16.40;99.90;;;;;;4951852;29;20047;-75
2023/04/16 12:02:38;;;;;;;24.83;19.75;;;16.60;99.90;;;;;;4952431;29;20050;-75
2023/04/16 12:05:06;;;;;;;26.35;19.80;;;16.70;99.90;;;;;;5032525;28;20509;-75
2023/04/16 12:07:42;;;;;;;28.90;21.67;;;16.60;99.90;;;;;;4951813;29;20039;-75
2023/04/16 12:10:07;;;;;;;26.42;20.05;;;16.50;99.90;;;;;;4936051;29;20447;-75
2023/04/16 12:12:34;;;;;;;25.70;19.90;;;16.50;99.90;;;;;;5036426;28;20082;-75
2023/04/16 12:15:03;;;;;;;27.08;19.75;;;16.50;99.90;;;;;;4950417;28;20039;-75
2023/04/16 12:17:31;;;;;;;25.58;20.27;;;16.40;99.90;;;;;;4952053;29;20043;-75
2023/04/16 12:19:59;;;;;;;25.33;20.38;;;16.30;99.90;;;;;;5035957;28;20054;-75
2023/04/16 12:22:35;;;;;;;25.02;20.00;;;16.30;99.90;;;;;;4951299;28;20042;-75
2023/04/16 12:25:06;;;;;;;27.48;20.45;;;16.20;99.90;;;;;;4943255;29;20082;-75
2023/04/16 12:27:46;;;;;;;27.75;21.50;;;16.10;99.90;;;;;;4951450;29;20043;-75